Time;durP1;ratioP1;P1;durP2;ratioP2;P2;SDS_P1;SDS_P2;PMS_P1;PMS_P2;Temp;Humidity;BMP_temperature;BMP_pressure;BME280_temperature;BME280_humidity;BME280_pressure;Samples;Min_cycle;Max_cycle;Signal;HPM_P1;HPM_P2
2023/10/23 00:00:41;;;;;;;2.93;2.13;;;;;;;;;;5128995;27;20209;-45
2023/10/23 00:03:09;;;;;;;2.17;1.97;;;;;;;;;;5124472;27;20219;-39
2023/10/23 00:05:36;;;;;;;2.60;1.90;;;;;;;;;;5122712;27;20291;-46
2023/10/23 00:08:03;;;;;;;2.50;1.80;;;;;;;;;;5123385;27;20207;-44
2023/10/23 00:10:30;;;;;;;2.27;1.77;;;;;;;;;;5120625;27;20757;-46
2023/10/23 00:12:57;;;;;;;2.73;2.10;;;;;;;;;;5129952;27;20443;-42
2023/10/23 00:15:26;;;;;;;3.77;2.27;;;;;;;;;;5129241;27;20214;-46
2023/10/23 00:17:53;;;;;;;3.43;2.27;;;;;;;;;;5126671;27;20214;-42
2023/10/23 00:20:20;;;;;;;2.17;2.00;;;;;;;;;;5118903;27;20275;-43
2023/10/23 00:22:47;;;;;;;2.30;2.10;;;;;;;;;;5128772;27;20223;-41
2023/10/23 00:25:15;;;;;;;3.57;2.00;;;;;;;;;;5124700;27;20203;-44
2023/10/23 00:27:42;;;;;;;3.60;2.17;;;;;;;;;;5122917;27;20207;-43
2023/10/23 00:30:09;;;;;;;3.47;1.80;;;;;;;;;;5131400;27;20259;-44
2023/10/23 00:32:38;;;;;;;3.00;1.83;;;;;;;;;;5132833;27;20278;-45
2023/10/23 00:35:05;;;;;;;3.93;2.17;;;;;;;;;;5122773;27;20203;-46
2023/10/23 00:37:32;;;;;;;2.87;1.80;;;;;;;;;;5128353;27;20203;-44
2023/10/23 00:40:00;;;;;;;2.37;1.83;;;;;;;;;;5127450;27;20643;-41
2023/10/23 00:42:27;;;;;;;3.57;1.97;;;;;;;;;;5114817;27;20768;-43
2023/10/23 00:44:54;;;;;;;1.90;1.70;;;;;;;;;;5129196;27;20208;-43
2023/10/23 00:47:22;;;;;;;3.07;1.90;;;;;;;;;;5127560;27;20210;-44
2023/10/23 00:49:50;;;;;;;2.17;1.80;;;;;;;;;;5117800;27;20231;-46
2023/10/23 00:52:17;;;;;;;2.70;1.70;;;;;;;;;;5123439;27;20230;-40
2023/10/23 00:54:45;;;;;;;3.30;1.80;;;;;;;;;;5128600;27;20211;-41
2023/10/23 00:57:12;;;;;;;2.70;1.97;;;;;;;;;;5116592;27;20298;-43
2023/10/23 00:59:39;;;;;;;3.13;1.80;;;;;;;;;;5129158;27;20215;-44
2023/10/23 01:02:13;;;;;;;2.57;1.80;;;;;;;;;;5122376;27;20688;-46
2023/10/23 01:04:40;;;;;;;3.53;1.70;;;;;;;;;;5131372;27;20199;-44
2023/10/23 01:07:09;;;;;;;1.73;1.60;;;;;;;;;;5132874;27;20294;-43
2023/10/23 01:09:36;;;;;;;2.50;1.97;;;;;;;;;;5123818;27;20224;-45
2023/10/23 01:12:03;;;;;;;1.67;1.43;;;;;;;;;;5121644;27;20195;-41
2023/10/23 01:14:30;;;;;;;4.67;1.90;;;;;;;;;;5128316;27;20208;-45
2023/10/23 01:16:57;;;;;;;1.90;1.70;;;;;;;;;;5127996;27;20294;-43
2023/10/23 01:19:24;;;;;;;2.43;2.03;;;;;;;;;;5130218;27;20584;-43
2023/10/23 01:21:51;;;;;;;2.83;1.70;;;;;;;;;;5131136;27;20232;-43
2023/10/23 01:24:20;;;;;;;1.70;1.60;;;;;;;;;;5129438;27;20215;-47
2023/10/23 01:26:49;;;;;;;3.70;1.80;;;;;;;;;;5121300;27;20203;-39
2023/10/23 01:29:16;;;;;;;1.77;1.67;;;;;;;;;;5127101;27;20224;-43
2023/10/23 01:31:43;;;;;;;1.70;1.60;;;;;;;;;;5137726;27;20203;-40
2023/10/23 01:34:10;;;;;;;1.73;1.60;;;;;;;;;;5126000;27;20203;-45
2023/10/23 01:36:37;;;;;;;3.03;1.50;;;;;;;;;;5135140;27;20195;-45
2023/10/23 01:39:05;;;;;;;3.63;1.93;;;;;;;;;;5131834;27;20230;-43
2023/10/23 01:41:32;;;;;;;1.57;1.43;;;;;;;;;;5127002;27;20641;-43
2023/10/23 01:44:00;;;;;;;3.87;1.87;;;;;;;;;;5128838;27;20199;-45
2023/10/23 01:46:27;;;;;;;1.90;1.70;;;;;;;;;;5132148;27;20200;-45
2023/10/23 01:48:54;;;;;;;1.77;1.67;;;;;;;;;;5131303;27;20223;-45
2023/10/23 01:51:22;;;;;;;1.60;1.47;;;;;;;;;;5121591;27;20203;-43
2023/10/23 01:53:49;;;;;;;1.63;1.50;;;;;;;;;;5130623;27;20211;-41
2023/10/23 01:56:16;;;;;;;2.30;1.40;;;;;;;;;;5122743;27;20210;-44
2023/10/23 01:58:43;;;;;;;2.07;1.50;;;;;;;;;;5134624;27;20215;-42
2023/10/23 02:01:20;;;;;;;1.50;1.40;;;;;;;;;;5131897;27;20203;-43
2023/10/23 02:03:47;;;;;;;3.90;1.60;;;;;;;;;;5131478;27;20235;-42
2023/10/23 02:06:14;;;;;;;1.53;1.23;;;;;;;;;;5122088;27;20521;-45
2023/10/23 02:08:42;;;;;;;1.80;1.60;;;;;;;;;;5129718;27;20223;-45
2023/10/23 02:11:09;;;;;;;1.80;1.23;;;;;;;;;;5124737;27;20197;-42
2023/10/23 02:13:36;;;;;;;1.60;1.40;;;;;;;;;;5130361;27;20290;-40
2023/10/23 02:16:03;;;;;;;1.80;1.30;;;;;;;;;;5135795;27;20195;-44
2023/10/23 02:18:32;;;;;;;1.73;1.50;;;;;;;;;;5134302;27;20720;-44
2023/10/23 02:20:59;;;;;;;1.43;1.20;;;;;;;;;;5128028;27;20196;-44
2023/10/23 02:23:26;;;;;;;1.27;1.27;;;;;;;;;;5139581;27;20222;-40
2023/10/23 02:25:53;;;;;;;2.13;1.43;;;;;;;;;;5122880;27;20594;-44
2023/10/23 02:28:20;;;;;;;1.73;1.30;;;;;;;;;;5135728;27;20227;-42
2023/10/23 02:30:47;;;;;;;4.83;1.50;;;;;;;;;;5131788;27;20219;-45
2023/10/23 02:33:14;;;;;;;1.47;1.30;;;;;;;;;;5131981;27;20203;-46
2023/10/23 02:35:44;;;;;;;1.60;1.50;;;;;;;;;;5125737;27;20251;-43
2023/10/23 02:38:11;;;;;;;1.63;1.20;;;;;;;;;;5132148;27;20319;-41
2023/10/23 02:40:38;;;;;;;2.63;1.10;;;;;;;;;;5122213;27;20211;-39
2023/10/23 02:43:05;;;;;;;1.30;1.20;;;;;;;;;;5118390;27;20268;-45
2023/10/23 02:45:33;;;;;;;2.17;1.50;;;;;;;;;;5131388;27;20664;-41
2023/10/23 02:48:01;;;;;;;1.30;1.20;;;;;;;;;;5131529;27;20210;-40
2023/10/23 02:50:28;;;;;;;1.30;1.20;;;;;;;;;;5122674;27;20227;-44
2023/10/23 02:52:57;;;;;;;2.70;2.07;;;;;;;;;;5129427;27;20196;-47
2023/10/23 02:55:26;;;;;;;1.60;1.40;;;;;;;;;;5123366;27;20200;-44
2023/10/23 02:57:53;;;;;;;1.00;1.00;;;;;;;;;;5122611;27;20203;-39
2023/10/23 03:00:22;;;;;;;3.07;1.37;;;;;;;;;;5130711;27;20215;-45
2023/10/23 03:02:49;;;;;;;2.57;1.40;;;;;;;;;;5135202;27;20219;-42
2023/10/23 03:05:16;;;;;;;1.53;1.37;;;;;;;;;;5126889;27;20229;-44
2023/10/23 03:07:43;;;;;;;1.20;1.10;;;;;;;;;;5125935;27;20199;-43
2023/10/23 03:10:12;;;;;;;1.83;1.40;;;;;;;;;;5126394;27;20228;-41
2023/10/23 03:12:39;;;;;;;2.20;1.20;;;;;;;;;;5120680;27;20196;-44
2023/10/23 03:15:07;;;;;;;1.20;1.10;;;;;;;;;;5129741;27;20659;-43
2023/10/23 03:17:34;;;;;;;1.07;1.00;;;;;;;;;;5130025;27;20698;-44
2023/10/23 03:20:02;;;;;;;1.43;1.17;;;;;;;;;;5123458;27;20235;-41
2023/10/23 03:22:30;;;;;;;1.40;1.30;;;;;;;;;;5129725;27;20711;-45
2023/10/23 03:24:57;;;;;;;1.10;1.10;;;;;;;;;;5133899;27;20301;-37
2023/10/23 03:27:26;;;;;;;1.00;1.00;;;;;;;;;;5129178;27;20203;-45
2023/10/23 03:29:53;;;;;;;1.53;1.30;;;;;;;;;;5130005;27;20231;-42
2023/10/23 03:32:20;;;;;;;2.50;1.10;;;;;;;;;;5130480;27;20566;-45
2023/10/23 03:34:48;;;;;;;2.40;1.30;;;;;;;;;;5123140;27;20204;-41
2023/10/23 03:37:15;;;;;;;2.07;1.20;;;;;;;;;;5128385;27;20267;-42
2023/10/23 03:39:42;;;;;;;1.17;1.13;;;;;;;;;;5127481;27;20230;-42
2023/10/23 03:42:09;;;;;;;1.57;1.30;;;;;;;;;;5117780;27;20203;-43
2023/10/23 03:44:38;;;;;;;1.20;1.20;;;;;;;;;;5125157;27;20208;-46
2023/10/23 03:47:05;;;;;;;1.10;1.10;;;;;;;;;;5129651;27;20256;-45
2023/10/23 03:49:32;;;;;;;1.30;1.20;;;;;;;;;;5116806;27;20223;-43
2023/10/23 03:51:59;;;;;;;1.57;1.00;;;;;;;;;;5127729;27;20586;-42
2023/10/23 03:54:26;;;;;;;2.50;1.10;;;;;;;;;;5133034;27;20211;-40
2023/10/23 03:56:54;;;;;;;1.30;1.13;;;;;;;;;;5116505;27;20208;-45
2023/10/23 03:59:21;;;;;;;1.10;1.00;;;;;;;;;;5124295;27;20223;-41
2023/10/23 04:01:51;;;;;;;2.40;1.10;;;;;;;;;;5130093;27;20214;-44
2023/10/23 04:04:18;;;;;;;1.17;1.10;;;;;;;;;;5124364;27;20280;-44
2023/10/23 04:06:45;;;;;;;1.40;1.30;;;;;;;;;;5119057;27;20215;-43
2023/10/23 04:09:12;;;;;;;1.33;1.00;;;;;;;;;;5122254;27;20227;-41
2023/10/23 04:11:39;;;;;;;1.57;1.30;;;;;;;;;;5116281;27;20364;-44
2023/10/23 04:14:06;;;;;;;1.13;1.03;;;;;;;;;;5126644;27;20206;-44
2023/10/23 04:16:33;;;;;;;1.30;1.20;;;;;;;;;;5129997;27;20199;-45
2023/10/23 04:19:02;;;;;;;1.57;1.13;;;;;;;;;;5125830;27;20227;-42
2023/10/23 04:21:30;;;;;;;0.90;0.90;;;;;;;;;;5121468;27;20257;-43
2023/10/23 04:23:57;;;;;;;1.17;1.07;;;;;;;;;;5129495;27;20224;-43
2023/10/23 04:26:24;;;;;;;1.07;1.00;;;;;;;;;;5121868;27;20283;-40
2023/10/23 04:28:51;;;;;;;1.30;1.07;;;;;;;;;;5127083;27;20229;-45
2023/10/23 04:31:18;;;;;;;1.93;1.10;;;;;;;;;;5125723;27;20722;-44
2023/10/23 04:33:45;;;;;;;1.30;1.20;;;;;;;;;;5127719;27;20208;-45
2023/10/23 04:36:14;;;;;;;1.20;1.13;;;;;;;;;;5131882;27;20542;-45
2023/10/23 04:38:41;;;;;;;1.40;1.30;;;;;;;;;;5128933;27;20262;-46
2023/10/23 04:41:08;;;;;;;1.60;1.03;;;;;;;;;;5118593;27;20543;-46
2023/10/23 04:43:35;;;;;;;1.43;1.20;;;;;;;;;;5123552;27;20229;-46
2023/10/23 04:46:02;;;;;;;0.97;0.97;;;;;;;;;;5128757;27;20212;-40
2023/10/23 04:48:30;;;;;;;1.30;1.20;;;;;;;;;;5124466;27;20199;-44
2023/10/23 04:50:59;;;;;;;3.07;1.30;;;;;;;;;;5126566;27;20290;-47
2023/10/23 04:53:28;;;;;;;2.63;1.40;;;;;;;;;;5125494;27;20191;-45
2023/10/23 04:55:55;;;;;;;3.27;1.07;;;;;;;;;;5127264;27;20210;-44
2023/10/23 04:58:22;;;;;;;2.17;1.50;;;;;;;;;;5124365;27;20203;-46
2023/10/23 05:00:49;;;;;;;1.40;1.30;;;;;;;;;;5129436;27;20302;-43
2023/10/23 05:03:17;;;;;;;1.53;1.37;;;;;;;;;;5130618;27;20216;-45
2023/10/23 05:05:48;;;;;;;1.33;1.20;;;;;;;;;;5136331;27;20195;-44
2023/10/23 05:08:15;;;;;;;1.27;1.10;;;;;;;;;;5128558;27;20209;-44
2023/10/23 05:10:43;;;;;;;1.20;1.10;;;;;;;;;;5128721;27;20206;-46
2023/10/23 05:13:11;;;;;;;1.40;1.30;;;;;;;;;;5126916;27;20276;-41
2023/10/23 05:15:38;;;;;;;1.60;1.30;;;;;;;;;;5136377;27;20281;-43
2023/10/23 05:18:05;;;;;;;1.47;1.27;;;;;;;;;;5144265;27;20213;-44
2023/10/23 05:20:35;;;;;;;1.50;1.37;;;;;;;;;;5128177;27;20216;-40
2023/10/23 05:23:03;;;;;;;1.60;1.40;;;;;;;;;;5133958;27;20707;-44
2023/10/23 05:25:30;;;;;;;1.27;1.13;;;;;;;;;;5127955;27;20210;-44
2023/10/23 05:27:58;;;;;;;2.17;1.30;;;;;;;;;;5129630;27;20744;-42
2023/10/23 05:30:26;;;;;;;1.77;1.20;;;;;;;;;;5132332;27;20700;-43
2023/10/23 05:32:53;;;;;;;1.57;1.13;;;;;;;;;;5129750;27;20213;-44
2023/10/23 05:35:20;;;;;;;1.43;1.20;;;;;;;;;;5116035;27;20195;-45
2023/10/23 05:37:48;;;;;;;2.60;1.23;;;;;;;;;;5128818;27;20199;-44
2023/10/23 05:40:15;;;;;;;2.40;2.20;;;;;;;;;;5127681;27;20215;-44
2023/10/23 05:42:42;;;;;;;4.53;1.80;;;;;;;;;;5126798;27;20203;-41
2023/10/23 05:45:11;;;;;;;2.73;1.33;;;;;;;;;;5131394;27;20207;-43
2023/10/23 05:47:39;;;;;;;1.17;1.00;;;;;;;;;;5128669;27;20294;-44
2023/10/23 05:50:06;;;;;;;1.00;1.00;;;;;;;;;;5120692;27;20425;-46
2023/10/23 05:52:33;;;;;;;1.47;1.37;;;;;;;;;;5123226;27;20200;-41
2023/10/23 05:55:04;;;;;;;1.50;1.40;;;;;;;;;;5128437;27;20649;-41
2023/10/23 05:57:31;;;;;;;4.53;1.63;;;;;;;;;;5120024;27;20207;-43
2023/10/23 06:00:00;;;;;;;3.23;1.27;;;;;;;;;;5131891;27;20231;-43
2023/10/23 06:02:29;;;;;;;1.37;1.27;;;;;;;;;;5132597;27;20252;-43
2023/10/23 06:04:57;;;;;;;2.03;1.83;;;;;;;;;;5129308;27;20776;-43
2023/10/23 06:07:30;;;;;;;1.40;1.30;;;;;;;;;;5133568;27;20734;-40
2023/10/23 06:10:01;;;;;;;3.37;1.47;;;;;;;;;;5136261;27;20234;-42
2023/10/23 06:12:28;;;;;;;3.13;1.43;;;;;;;;;;5122353;27;20302;-41
2023/10/23 06:14:58;;;;;;;1.77;1.67;;;;;;;;;;5133032;27;20195;-43
2023/10/23 06:17:25;;;;;;;2.20;1.30;;;;;;;;;;5134329;27;20234;-40
2023/10/23 06:19:54;;;;;;;2.50;2.30;;;;;;;;;;5131783;27;20227;-41
2023/10/23 06:22:22;;;;;;;2.37;2.07;;;;;;;;;;5133812;27;20209;-42
2023/10/23 06:24:56;;;;;;;2.27;1.87;;;;;;;;;;5140338;27;20215;-46
2023/10/23 06:27:23;;;;;;;1.97;1.80;;;;;;;;;;5121084;27;20291;-41
2023/10/23 06:29:51;;;;;;;2.90;2.47;;;;;;;;;;5131128;27;20223;-45
2023/10/23 06:32:19;;;;;;;2.33;1.93;;;;;;;;;;5128502;27;20202;-42
2023/10/23 06:34:46;;;;;;;2.20;1.93;;;;;;;;;;5124845;27;20204;-46
2023/10/23 06:37:15;;;;;;;1.90;1.80;;;;;;;;;;5136917;27;20205;-42
2023/10/23 06:39:42;;;;;;;2.47;1.70;;;;;;;;;;5138631;27;20259;-42
2023/10/23 06:42:11;;;;;;;2.27;2.10;;;;;;;;;;5126766;27;20661;-42
2023/10/23 06:44:39;;;;;;;4.50;2.53;;;;;;;;;;5126905;27;20253;-44
2023/10/23 06:47:07;;;;;;;2.10;1.60;;;;;;;;;;5133531;27;20279;-45
2023/10/23 06:49:34;;;;;;;3.70;2.20;;;;;;;;;;5127429;27;20280;-43
2023/10/23 06:52:01;;;;;;;5.70;2.40;;;;;;;;;;5130160;27;20570;-43
2023/10/23 06:54:30;;;;;;;1.90;1.80;;;;;;;;;;5137938;27;20203;-43
2023/10/23 06:56:57;;;;;;;2.10;1.73;;;;;;;;;;5130827;27;20199;-42
2023/10/23 06:59:24;;;;;;;2.10;1.90;;;;;;;;;;5131381;27;20218;-42
2023/10/23 07:01:51;;;;;;;3.33;2.10;;;;;;;;;;5147211;27;20593;-40
2023/10/23 07:04:19;;;;;;;2.50;2.30;;;;;;;;;;5129073;27;20218;-43
2023/10/23 07:06:46;;;;;;;5.73;2.33;;;;;;;;;;5128147;27;20216;-42
2023/10/23 07:09:13;;;;;;;2.23;1.87;;;;;;;;;;5121826;27;20233;-39
2023/10/23 07:11:41;;;;;;;1.67;1.57;;;;;;;;;;5128100;27;20556;-40
2023/10/23 07:14:21;;;;;;;2.03;1.83;;;;;;;;;;5122621;27;20217;-41
2023/10/23 07:16:48;;;;;;;3.80;1.60;;;;;;;;;;5138762;27;20207;-39
2023/10/23 07:19:15;;;;;;;2.33;2.00;;;;;;;;;;5125525;27;20325;-43
2023/10/23 07:21:42;;;;;;;2.27;2.07;;;;;;;;;;5123516;27;20209;-43
2023/10/23 07:24:15;;;;;;;3.00;2.20;;;;;;;;;;5120251;27;20234;-44
2023/10/23 07:27:04;;;;;;;3.03;2.10;;;;;;;;;;5117336;27;20669;-43
2023/10/23 07:29:33;;;;;;;3.80;2.20;;;;;;;;;;5129958;27;20639;-42
2023/10/23 07:32:00;;;;;;;1.70;1.60;;;;;;;;;;5138634;27;20202;-40
2023/10/23 07:34:27;;;;;;;2.10;1.90;;;;;;;;;;5138601;27;20875;-41
2023/10/23 07:36:54;;;;;;;2.57;1.70;;;;;;;;;;5140779;27;20207;-39
2023/10/23 07:39:21;;;;;;;5.63;2.20;;;;;;;;;;5124743;27;20249;-38
2023/10/23 07:41:49;;;;;;;4.63;2.70;;;;;;;;;;5129483;27;20203;-39
2023/10/23 07:44:16;;;;;;;3.57;2.27;;;;;;;;;;5140730;27;20211;-43
2023/10/23 07:46:46;;;;;;;3.80;2.00;;;;;;;;;;5133149;27;20686;-41
2023/10/23 07:49:13;;;;;;;4.10;2.00;;;;;;;;;;5125425;27;20247;-46
2023/10/23 07:51:40;;;;;;;1.70;1.57;;;;;;;;;;5127600;27;20686;-41
2023/10/23 07:54:08;;;;;;;4.07;2.03;;;;;;;;;;5134142;27;20203;-43
2023/10/23 07:56:35;;;;;;;5.30;2.17;;;;;;;;;;5131150;27;20240;-43
2023/10/23 07:59:02;;;;;;;3.10;2.07;;;;;;;;;;5132385;27;20233;-40
2023/10/23 08:01:29;;;;;;;4.83;2.10;;;;;;;;;;5133910;27;20310;-43
2023/10/23 08:03:58;;;;;;;3.27;1.80;;;;;;;;;;5133711;27;20278;-41
2023/10/23 08:06:25;;;;;;;8.53;2.40;;;;;;;;;;5125709;27;20290;-41
2023/10/23 08:08:52;;;;;;;2.13;1.90;;;;;;;;;;5139769;27;20222;-39
2023/10/23 08:11:19;;;;;;;3.67;2.57;;;;;;;;;;5122440;27;20297;-42
2023/10/23 08:13:46;;;;;;;4.23;2.60;;;;;;;;;;5123438;27;20234;-44
2023/10/23 08:16:13;;;;;;;5.10;2.47;;;;;;;;;;5137806;27;20659;-37
2023/10/23 08:18:42;;;;;;;5.07;2.73;;;;;;;;;;5131040;27;20219;-44
2023/10/23 08:21:11;;;;;;;3.23;1.90;;;;;;;;;;5125505;27;20203;-42
2023/10/23 08:23:38;;;;;;;1.90;1.73;;;;;;;;;;5128926;27;20203;-45
2023/10/23 08:26:06;;;;;;;4.47;2.33;;;;;;;;;;5121719;27;20311;-40
2023/10/23 08:28:33;;;;;;;4.60;2.37;;;;;;;;;;5131372;27;20764;-38
2023/10/23 08:31:00;;;;;;;3.53;2.23;;;;;;;;;;5133642;27;20211;-41
2023/10/23 08:33:27;;;;;;;5.73;2.50;;;;;;;;;;5129436;27;20200;-41
2023/10/23 08:35:54;;;;;;;4.80;2.43;;;;;;;;;;5122654;27;20234;-43
2023/10/23 08:38:23;;;;;;;3.40;2.47;;;;;;;;;;5142186;27;20217;-44
2023/10/23 08:40:50;;;;;;;4.77;2.63;;;;;;;;;;5117465;27;20653;-43
2023/10/23 08:43:18;;;;;;;7.70;2.83;;;;;;;;;;5122239;27;20213;-43
2023/10/23 08:45:45;;;;;;;5.53;2.70;;;;;;;;;;5131536;27;20241;-40
2023/10/23 08:48:13;;;;;;;4.10;2.57;;;;;;;;;;5131322;27;20203;-43
2023/10/23 08:50:42;;;;;;;6.80;2.53;;;;;;;;;;5119743;27;20199;-43
2023/10/23 08:53:10;;;;;;;3.03;2.23;;;;;;;;;;5137981;27;20210;-46
2023/10/23 08:55:38;;;;;;;5.53;2.63;;;;;;;;;;5125436;27;20204;-44
2023/10/23 08:58:06;;;;;;;4.17;2.20;;;;;;;;;;5134881;27;20290;-38
2023/10/23 09:00:34;;;;;;;4.50;3.37;;;;;;;;;;5144199;27;20229;-43
2023/10/23 09:03:02;;;;;;;5.80;2.67;;;;;;;;;;5137342;27;20203;-44
2023/10/23 09:05:29;;;;;;;5.47;2.83;;;;;;;;;;5129058;27;20225;-41
2023/10/23 09:07:56;;;;;;;4.00;2.60;;;;;;;;;;5149539;27;20209;-38
2023/10/23 09:10:23;;;;;;;3.80;2.37;;;;;;;;;;5124055;27;20231;-44
2023/10/23 09:12:56;;;;;;;3.00;2.40;;;;;;;;;;5111645;27;20199;-42
2023/10/23 09:15:24;;;;;;;3.90;2.40;;;;;;;;;;5128550;27;20203;-40
2023/10/23 09:17:52;;;;;;;4.33;2.30;;;;;;;;;;5129503;27;20218;-39
2023/10/23 09:20:23;;;;;;;6.23;2.90;;;;;;;;;;5113973;27;20237;-40
2023/10/23 09:22:51;;;;;;;4.80;2.47;;;;;;;;;;5127119;27;20196;-42
2023/10/23 09:25:19;;;;;;;9.00;3.10;;;;;;;;;;5119270;27;20618;-42
2023/10/23 09:27:46;;;;;;;3.10;2.80;;;;;;;;;;5129604;27;20218;-41
2023/10/23 09:30:21;;;;;;;5.03;2.70;;;;;;;;;;5121562;27;20232;-42
2023/10/23 09:32:50;;;;;;;4.93;2.93;;;;;;;;;;5132355;27;20206;-41
2023/10/23 09:35:18;;;;;;;5.17;2.63;;;;;;;;;;5133925;27;20187;-41
2023/10/23 09:37:45;;;;;;;3.83;2.67;;;;;;;;;;5119076;27;20214;-41
2023/10/23 09:40:24;;;;;;;3.60;2.47;;;;;;;;;;5121437;27;20227;-46
2023/10/23 09:42:51;;;;;;;4.77;2.90;;;;;;;;;;5131055;27;20199;-45
2023/10/23 09:45:21;;;;;;;2.93;2.30;;;;;;;;;;5138076;27;20249;-40
2023/10/23 09:47:49;;;;;;;3.13;2.77;;;;;;;;;;5137877;27;20211;-44
2023/10/23 09:50:16;;;;;;;2.70;2.50;;;;;;;;;;5128518;27;20864;-43
2023/10/23 09:52:44;;;;;;;4.30;2.73;;;;;;;;;;5131551;27;20286;-47
2023/10/23 09:55:13;;;;;;;4.97;2.90;;;;;;;;;;5127715;27;20198;-40
2023/10/23 09:57:40;;;;;;;6.30;2.87;;;;;;;;;;5140844;27;20286;-46
2023/10/23 10:00:14;;;;;;;4.60;2.77;;;;;;;;;;5134644;27;20255;-42
2023/10/23 10:02:47;;;;;;;2.50;2.30;;;;;;;;;;5142799;27;20203;-41
2023/10/23 10:05:18;;;;;;;3.10;2.20;;;;;;;;;;5129325;27;20215;-43
2023/10/23 10:07:50;;;;;;;4.33;2.63;;;;;;;;;;5124509;27;20262;-40
2023/10/23 10:10:18;;;;;;;5.60;3.30;;;;;;;;;;5135202;27;20280;-40
2023/10/23 10:12:46;;;;;;;7.93;2.90;;;;;;;;;;5142051;27;20239;-43
2023/10/23 10:15:14;;;;;;;4.33;2.63;;;;;;;;;;5144951;27;20203;-41
2023/10/23 10:17:43;;;;;;;4.53;2.70;;;;;;;;;;5134738;27;20206;-43
2023/10/23 10:20:11;;;;;;;6.00;3.23;;;;;;;;;;5118958;27;20224;-42
2023/10/23 10:22:40;;;;;;;6.50;3.40;;;;;;;;;;5130868;27;20423;-41
2023/10/23 10:25:09;;;;;;;3.90;2.60;;;;;;;;;;5129285;27;20227;-43
2023/10/23 10:27:37;;;;;;;4.17;3.00;;;;;;;;;;5127331;27;20207;-42
2023/10/23 10:30:05;;;;;;;3.93;3.13;;;;;;;;;;5129475;27;20241;-42
2023/10/23 10:32:33;;;;;;;5.73;3.47;;;;;;;;;;5134882;27;20204;-43
2023/10/23 10:35:06;;;;;;;6.47;3.47;;;;;;;;;;5131936;27;20207;-42
2023/10/23 10:37:33;;;;;;;4.17;3.00;;;;;;;;;;5142813;27;20206;-41
2023/10/23 10:40:03;;;;;;;7.57;4.00;;;;;;;;;;5142678;27;20314;-43
2023/10/23 10:42:30;;;;;;;10.53;3.70;;;;;;;;;;5131627;27;20203;-42
2023/10/23 10:44:59;;;;;;;5.50;3.13;;;;;;;;;;5140703;27;20231;-40
2023/10/23 10:47:36;;;;;;;4.77;3.80;;;;;;;;;;5141136;27;20293;-43
2023/10/23 10:50:05;;;;;;;5.80;3.57;;;;;;;;;;5128316;27;20223;-45
2023/10/23 10:52:35;;;;;;;4.73;3.70;;;;;;;;;;5127587;27;20532;-42
2023/10/23 10:55:02;;;;;;;5.93;4.10;;;;;;;;;;5132689;27;20271;-43
2023/10/23 10:57:34;;;;;;;4.20;3.53;;;;;;;;;;5129926;27;20214;-41
2023/10/23 11:00:03;;;;;;;5.13;3.27;;;;;;;;;;5132079;27;20272;-42
2023/10/23 11:02:30;;;;;;;3.30;3.00;;;;;;;;;;5133023;27;20209;-40
2023/10/23 11:04:57;;;;;;;5.93;3.70;;;;;;;;;;5117941;27;20232;-42
2023/10/23 11:07:26;;;;;;;6.87;3.37;;;;;;;;;;5132413;27;20217;-40
2023/10/23 11:10:04;;;;;;;9.33;3.80;;;;;;;;;;5130941;27;20230;-42
2023/10/23 11:12:32;;;;;;;4.77;3.13;;;;;;;;;;5133337;27;20206;-44
2023/10/23 11:14:59;;;;;;;3.20;2.70;;;;;;;;;;5133934;27;20199;-43
2023/10/23 11:17:26;;;;;;;8.90;3.43;;;;;;;;;;5135686;27;20207;-42
2023/10/23 11:19:53;;;;;;;7.00;3.43;;;;;;;;;;5146130;27;20249;-41
2023/10/23 11:22:21;;;;;;;6.40;3.87;;;;;;;;;;5131880;27;20207;-46
2023/10/23 11:24:50;;;;;;;5.30;3.30;;;;;;;;;;5141695;27;20227;-42
2023/10/23 11:27:17;;;;;;;7.40;3.93;;;;;;;;;;5130858;27;20213;-41
2023/10/23 11:29:45;;;;;;;5.57;3.30;;;;;;;;;;5142119;27;20555;-39
2023/10/23 11:32:12;;;;;;;6.33;3.40;;;;;;;;;;5133969;27;20199;-38
2023/10/23 11:34:39;;;;;;;9.87;4.10;;;;;;;;;;5138471;27;20203;-45
2023/10/23 11:37:07;;;;;;;4.80;2.90;;;;;;;;;;5131897;27;20759;-44
2023/10/23 11:39:36;;;;;;;5.00;2.90;;;;;;;;;;5136322;27;20238;-43
2023/10/23 11:42:05;;;;;;;4.40;3.00;;;;;;;;;;5120951;27;20210;-46
2023/10/23 11:44:33;;;;;;;4.00;2.07;;;;;;;;;;5143941;27;20285;-43
2023/10/23 11:47:01;;;;;;;4.47;1.40;;;;;;;;;;5154151;27;20231;-41
2023/10/23 11:49:28;;;;;;;1.47;1.20;;;;;;;;;;5143160;27;20258;-40
2023/10/23 11:51:56;;;;;;;1.50;1.20;;;;;;;;;;5124390;27;20208;-41
2023/10/23 11:54:25;;;;;;;3.20;1.10;;;;;;;;;;5133516;27;20210;-35
2023/10/23 11:56:52;;;;;;;2.00;1.17;;;;;;;;;;5129513;27;20202;-44
2023/10/23 11:59:21;;;;;;;1.90;1.30;;;;;;;;;;5131140;27;20233;-41
2023/10/23 12:01:49;;;;;;;1.60;0.90;;;;;;;;;;5146073;27;20785;-43
2023/10/23 12:04:16;;;;;;;3.50;1.40;;;;;;;;;;5127306;27;20211;-42
2023/10/23 12:06:43;;;;;;;1.37;1.00;;;;;;;;;;5148283;27;20696;-42
2023/10/23 12:09:11;;;;;;;2.87;1.53;;;;;;;;;;5141379;27;20218;-40
2023/10/23 12:11:40;;;;;;;1.13;1.00;;;;;;;;;;5129430;27;20206;-38
2023/10/23 12:14:07;;;;;;;1.63;0.93;;;;;;;;;;5143893;27;20215;-45
2023/10/23 12:16:35;;;;;;;1.23;1.13;;;;;;;;;;5134241;27;20199;-43
2023/10/23 12:19:04;;;;;;;1.47;1.20;;;;;;;;;;5130075;27;20224;-44
2023/10/23 12:21:31;;;;;;;0.90;0.90;;;;;;;;;;5129101;27;20493;-44
2023/10/23 12:23:58;;;;;;;2.40;1.37;;;;;;;;;;5133079;27;20207;-41
2023/10/23 12:26:25;;;;;;;2.23;1.30;;;;;;;;;;5124784;27;20230;-39
2023/10/23 12:28:52;;;;;;;3.00;0.90;;;;;;;;;;5141494;27;20227;-44
2023/10/23 12:31:20;;;;;;;2.60;1.37;;;;;;;;;;5141501;27;20726;-43
2023/10/23 12:33:48;;;;;;;1.00;1.00;;;;;;;;;;5134083;27;20207;-45
2023/10/23 12:36:17;;;;;;;4.40;1.27;;;;;;;;;;5146819;27;20300;-41
2023/10/23 12:38:44;;;;;;;2.20;1.40;;;;;;;;;;5124647;27;20223;-41
2023/10/23 12:41:11;;;;;;;1.97;1.10;;;;;;;;;;5125041;27;20206;-44
2023/10/23 12:43:39;;;;;;;2.23;1.13;;;;;;;;;;5135323;27;20569;-42
2023/10/23 12:46:06;;;;;;;1.77;0.97;;;;;;;;;;5138507;27;20226;-42
2023/10/23 12:48:33;;;;;;;1.70;0.90;;;;;;;;;;5141305;27;20227;-41
2023/10/23 12:51:02;;;;;;;1.90;0.93;;;;;;;;;;5122881;27;20204;-43
2023/10/23 12:53:29;;;;;;;1.63;1.20;;;;;;;;;;5143639;27;20209;-41
2023/10/23 12:55:56;;;;;;;3.77;1.50;;;;;;;;;;5131592;27;20203;-43
2023/10/23 12:58:23;;;;;;;1.13;1.03;;;;;;;;;;5128247;27;20211;-42
2023/10/23 13:00:51;;;;;;;1.30;1.20;;;;;;;;;;5129418;27;20210;-43
2023/10/23 13:03:18;;;;;;;3.23;1.40;;;;;;;;;;5138599;27;20217;-41
2023/10/23 13:05:45;;;;;;;2.53;1.50;;;;;;;;;;5121352;27;20251;-46
2023/10/23 13:08:13;;;;;;;1.67;1.07;;;;;;;;;;5131857;27;20210;-38
2023/10/23 13:10:41;;;;;;;1.20;1.10;;;;;;;;;;5130897;27;20551;-46
2023/10/23 13:13:08;;;;;;;3.73;1.20;;;;;;;;;;5130472;27;20230;-45
2023/10/23 13:15:35;;;;;;;2.90;1.57;;;;;;;;;;5133697;27;20195;-45
2023/10/23 13:18:03;;;;;;;7.60;1.50;;;;;;;;;;5152773;27;20214;-43
2023/10/23 13:20:30;;;;;;;1.30;1.20;;;;;;;;;;5126618;27;20275;-38
2023/10/23 13:22:57;;;;;;;3.20;1.47;;;;;;;;;;5134072;27;20196;-46
2023/10/23 13:25:26;;;;;;;1.60;1.37;;;;;;;;;;5125843;27;20571;-44
2023/10/23 13:27:53;;;;;;;3.20;1.50;;;;;;;;;;5131802;27;20294;-44
2023/10/23 13:30:20;;;;;;;2.03;1.20;;;;;;;;;;5148154;27;20233;-46
2023/10/23 13:32:48;;;;;;;1.73;1.33;;;;;;;;;;5124367;27;20208;-40
2023/10/23 13:35:15;;;;;;;2.10;1.50;;;;;;;;;;5132482;27;20851;-43
2023/10/23 13:37:43;;;;;;;1.40;1.30;;;;;;;;;;5135212;27;20266;-39
2023/10/23 13:40:11;;;;;;;2.43;2.23;;;;;;;;;;5129775;27;20231;-45
2023/10/23 13:42:39;;;;;;;3.20;2.17;;;;;;;;;;5128107;27;20257;-43
2023/10/23 13:45:07;;;;;;;3.20;1.70;;;;;;;;;;5136146;27;20210;-44
2023/10/23 13:47:34;;;;;;;2.33;2.13;;;;;;;;;;5143912;27;20223;-41
2023/10/23 13:50:01;;;;;;;6.10;2.50;;;;;;;;;;5126210;27;20688;-44
2023/10/23 13:52:28;;;;;;;3.53;2.03;;;;;;;;;;5134433;27;20202;-40
2023/10/23 13:54:57;;;;;;;3.00;2.33;;;;;;;;;;5136182;27;20207;-44
2023/10/23 13:57:24;;;;;;;4.33;2.30;;;;;;;;;;5128640;27;20204;-44
2023/10/23 13:59:52;;;;;;;4.57;2.20;;;;;;;;;;5138365;27;20219;-38
2023/10/23 14:02:20;;;;;;;2.83;2.57;;;;;;;;;;5146461;27;20660;-41
2023/10/23 14:04:49;;;;;;;5.07;2.90;;;;;;;;;;5123292;27;20211;-45
2023/10/23 14:07:16;;;;;;;5.30;2.80;;;;;;;;;;5120786;27;20234;-45
2023/10/23 14:09:43;;;;;;;4.03;2.80;;;;;;;;;;5124765;27;20232;-43
2023/10/23 14:12:11;;;;;;;3.10;2.53;;;;;;;;;;5123381;27;20199;-41
2023/10/23 14:14:41;;;;;;;4.37;2.50;;;;;;;;;;5128751;27;20203;-43
2023/10/23 14:17:09;;;;;;;3.03;2.70;;;;;;;;;;5143825;27;20586;-42
2023/10/23 14:19:36;;;;;;;5.63;3.00;;;;;;;;;;5141638;27;20226;-42
2023/10/23 14:22:04;;;;;;;2.53;2.30;;;;;;;;;;5119183;27;21100;-41
2023/10/23 14:24:31;;;;;;;2.53;2.33;;;;;;;;;;5132101;27;20203;-43
2023/10/23 14:26:58;;;;;;;3.83;2.70;;;;;;;;;;5123523;27;20231;-45
2023/10/23 14:29:25;;;;;;;2.73;2.53;;;;;;;;;;5131767;27;20229;-44
2023/10/23 14:31:52;;;;;;;5.63;2.70;;;;;;;;;;5135391;27;20929;-43
2023/10/23 14:34:21;;;;;;;3.23;2.70;;;;;;;;;;5129855;27;20235;-40
2023/10/23 14:36:48;;;;;;;3.30;2.30;;;;;;;;;;5129257;27;20198;-43
2023/10/23 14:39:16;;;;;;;2.67;2.47;;;;;;;;;;5139770;27;20223;-41
2023/10/23 14:41:43;;;;;;;4.27;3.10;;;;;;;;;;5125190;27;20257;-35
2023/10/23 14:44:10;;;;;;;4.23;2.80;;;;;;;;;;5143082;27;20670;-44
2023/10/23 14:46:37;;;;;;;2.97;2.70;;;;;;;;;;5146764;27;20261;-39